Time;durP1;ratioP1;P1;durP2;ratioP2;P2;SDS_P1;SDS_P2;PMS_P1;PMS_P2;Temp;Humidity;BMP_temperature;BMP_pressure;BME280_temperature;BME280_humidity;BME280_pressure;Samples;Min_cycle;Max_cycle;Signal;HPM_P1;HPM_P2
2022/04/20 00:01:42;;;;;;;;;;;23.00;32.20;;;;;;4962593;29;19927;-68
2022/04/20 00:04:11;;;;;;;;;;;23.00;32.30;;;;;;4962310;28;19938;-68
2022/04/20 00:06:38;;;;;;;;;;;23.00;32.20;;;;;;4962681;29;20001;-68
2022/04/20 00:09:05;;;;;;;;;;;23.00;32.30;;;;;;4962455;28;19933;-68
2022/04/20 00:11:32;;;;;;;;;;;23.00;32.30;;;;;;4962267;28;19926;-68
2022/04/20 00:13:59;;;;;;;;;;;23.00;32.30;;;;;;4962276;28;19926;-68
2022/04/20 00:16:26;;;;;;;;;;;23.00;32.30;;;;;;4945514;29;20010;-69
2022/04/20 00:18:53;;;;;;;;;;;22.90;32.30;;;;;;4962313;29;19980;-69
2022/04/20 00:21:25;;;;;;;;;;;22.90;32.30;;;;;;4961995;29;19926;-69
2022/04/20 00:23:54;;;;;;;;;;;22.90;32.30;;;;;;4962241;29;20282;-68
2022/04/20 00:26:21;;;;;;;;;;;23.00;32.30;;;;;;4961998;28;19927;-69
2022/04/20 00:28:48;;;;;;;;;;;23.00;32.30;;;;;;4962472;28;19961;-68
2022/04/20 00:31:15;;;;;;;;;;;23.00;32.20;;;;;;4961928;28;20021;-68
2022/04/20 00:33:42;;;;;;;;;;;23.00;32.20;;;;;;4962289;29;19958;-69
2022/04/20 00:36:09;;;;;;;;;;;23.00;32.20;;;;;;4961835;28;19927;-69
2022/04/20 00:38:36;;;;;;;;;;;23.00;32.20;;;;;;4961964;29;19980;-68
2022/04/20 00:41:03;;;;;;;;;;;23.00;32.20;;;;;;4961596;28;19926;-68
2022/04/20 00:43:30;;;;;;;;;;;23.00;32.20;;;;;;4961726;29;19930;-68
2022/04/20 00:45:59;;;;;;;;;;;23.00;32.20;;;;;;4959027;28;20359;-69
2022/04/20 00:48:27;;;;;;;;;;;23.00;32.20;;;;;;4959091;29;19934;-68
2022/04/20 00:50:54;;;;;;;;;;;23.00;32.10;;;;;;4958638;28;19958;-68
2022/04/20 00:53:21;;;;;;;;;;;23.00;32.20;;;;;;4958892;29;19930;-68
2022/04/20 00:55:48;;;;;;;;;;;23.00;32.20;;;;;;4958432;28;19977;-68
2022/04/20 00:58:15;;;;;;;;;;;23.00;32.10;;;;;;4941597;29;19953;-68
2022/04/20 01:00:42;;;;;;;;;;;23.00;32.10;;;;;;4958664;28;19980;-68
2022/04/20 01:03:09;;;;;;;;;;;23.00;32.20;;;;;;4958529;29;19988;-68
2022/04/20 01:05:36;;;;;;;;;;;23.00;32.20;;;;;;4958710;28;19927;-68
2022/04/20 01:08:03;;;;;;;;;;;23.00;32.20;;;;;;4958295;29;20427;-69
2022/04/20 01:10:32;;;;;;;;;;;23.00;32.20;;;;;;4941471;28;20394;-68
2022/04/20 01:12:59;;;;;;;;;;;23.00;32.20;;;;;;4958328;29;20374;-68
2022/04/20 01:15:27;;;;;;;;;;;23.00;32.20;;;;;;4958215;28;19927;-68
2022/04/20 01:17:54;;;;;;;;;;;23.00;32.20;;;;;;4958069;29;19972;-68
2022/04/20 01:20:21;;;;;;;;;;;23.00;32.20;;;;;;4958026;28;20361;-68
2022/04/20 01:22:48;;;;;;;;;;;23.00;32.20;;;;;;4957917;28;20017;-68
2022/04/20 01:25:15;;;;;;;;;;;23.00;32.20;;;;;;4958016;28;19927;-69
2022/04/20 01:27:42;;;;;;;;;;;23.00;32.20;;;;;;4958330;29;19958;-69
2022/04/20 01:30:09;;;;;;;;;;;23.00;32.20;;;;;;4958010;28;20416;-69
2022/04/20 01:32:36;;;;;;;;;;;23.00;32.20;;;;;;4958152;29;20060;-68
2022/04/20 01:35:04;;;;;;;;;;;23.00;32.20;;;;;;4957889;28;19977;-69
2022/04/20 01:37:31;;;;;;;;;;;23.00;32.20;;;;;;4958144;28;19953;-68
2022/04/20 01:39:58;;;;;;;;;;;23.00;32.20;;;;;;4958051;28;19981;-68
2022/04/20 01:42:25;;;;;;;;;;;23.00;32.20;;;;;;4958127;29;19974;-68
2022/04/20 01:44:52;;;;;;;;;;;22.90;32.20;;;;;;4957901;28;20380;-68
2022/04/20 01:47:19;;;;;;;;;;;22.90;32.30;;;;;;4958095;29;20013;-68
2022/04/20 01:49:46;;;;;;;;;;;22.90;32.40;;;;;;4957862;28;19965;-69
2022/04/20 01:52:13;;;;;;;;;;;22.90;32.40;;;;;;4957767;29;19970;-69
2022/04/20 01:54:40;;;;;;;;;;;22.90;32.40;;;;;;4957513;28;20025;-69
2022/04/20 01:57:07;;;;;;;;;;;22.80;32.40;;;;;;4957650;29;19949;-68
2022/04/20 01:59:34;;;;;;;;;;;22.80;32.50;;;;;;4957662;28;19980;-68
2022/04/20 02:04:48;;;;;;;;;;;22.80;32.50;;;;;;4957298;28;19926;-69
2022/04/20 02:07:15;;;;;;;;;;;22.80;32.50;;;;;;4957556;29;20417;-68
2022/04/20 02:09:42;;;;;;;;;;;22.80;32.60;;;;;;4958005;28;19939;-68
2022/04/20 02:12:08;;;;;;;;;;;22.80;32.60;;;;;;4957561;28;19972;-68
2022/04/20 02:14:35;;;;;;;;;;;22.80;32.60;;;;;;4957207;28;19935;-68
2022/04/20 02:17:02;;;;;;;;;;;22.80;32.60;;;;;;4957376;29;20025;-68
2022/04/20 02:19:30;;;;;;;;;;;22.80;32.50;;;;;;4957044;28;19931;-68
2022/04/20 02:21:56;;;;;;;;;;;22.80;32.50;;;;;;4957337;29;19972;-68
2022/04/20 02:24:23;;;;;;;;;;;22.80;32.50;;;;;;4957255;28;20310;-68
2022/04/20 02:26:50;;;;;;;;;;;22.80;32.50;;;;;;4957302;28;19927;-68
2022/04/20 02:29:17;;;;;;;;;;;22.80;32.50;;;;;;4956986;28;19965;-68
2022/04/20 02:31:44;;;;;;;;;;;22.80;32.40;;;;;;4957109;29;19926;-69
2022/04/20 02:34:11;;;;;;;;;;;22.80;32.40;;;;;;4956941;28;19957;-68
2022/04/20 02:36:38;;;;;;;;;;;22.90;32.50;;;;;;4957253;29;19977;-68
2022/04/20 02:39:06;;;;;;;;;;;22.90;32.50;;;;;;4957084;28;19926;-68
2022/04/20 02:41:35;;;;;;;;;;;22.90;32.50;;;;;;4956911;28;19933;-68
2022/04/20 02:44:05;;;;;;;;;;;22.80;32.50;;;;;;4957196;28;19931;-68
2022/04/20 02:46:32;;;;;;;;;;;22.80;32.50;;;;;;4957525;29;20359;-68
2022/04/20 02:48:59;;;;;;;;;;;22.80;32.50;;;;;;4957206;29;20357;-68
2022/04/20 02:51:26;;;;;;;;;;;22.80;32.50;;;;;;4956761;28;19952;-68
2022/04/20 02:53:53;;;;;;;;;;;22.80;32.50;;;;;;4957237;29;19927;-68
2022/04/20 02:56:20;;;;;;;;;;;22.80;32.50;;;;;;4956705;28;19926;-68
2022/04/20 02:58:47;;;;;;;;;;;22.80;32.50;;;;;;4956915;29;19976;-69
2022/04/20 03:01:13;;;;;;;;;;;22.80;32.50;;;;;;4956775;28;19926;-69
2022/04/20 03:03:41;;;;;;;;;;;22.80;32.50;;;;;;4939758;28;19933;-68
2022/04/20 03:06:08;;;;;;;;;;;22.80;32.50;;;;;;4956397;28;20028;-68
2022/04/20 03:08:35;;;;;;;;;;;22.80;32.50;;;;;;4955931;29;19926;-68
2022/04/20 03:11:02;;;;;;;;;;;22.80;32.50;;;;;;4956742;28;20056;-68
2022/04/20 03:13:29;;;;;;;;;;;22.80;32.50;;;;;;4956924;28;20029;-69
2022/04/20 03:15:56;;;;;;;;;;;22.80;32.50;;;;;;4956497;28;19927;-68
2022/04/20 03:18:23;;;;;;;;;;;22.80;32.50;;;;;;4956763;29;20309;-68
2022/04/20 03:20:51;;;;;;;;;;;22.80;32.50;;;;;;4939486;29;19927;-68
2022/04/20 03:23:18;;;;;;;;;;;22.80;32.50;;;;;;4956582;29;19927;-68
2022/04/20 03:25:45;;;;;;;;;;;22.80;32.50;;;;;;4956987;28;19958;-69
2022/04/20 03:28:11;;;;;;;;;;;22.80;32.50;;;;;;4939364;29;20017;-69
2022/04/20 03:30:39;;;;;;;;;;;22.80;32.50;;;;;;4956226;28;19932;-69
2022/04/20 03:33:08;;;;;;;;;;;22.80;32.50;;;;;;4956283;29;19931;-69
2022/04/20 03:35:36;;;;;;;;;;;22.70;32.50;;;;;;4956283;28;19934;-69
2022/04/20 03:38:03;;;;;;;;;;;22.70;32.60;;;;;;4956338;29;19927;-68
2022/04/20 03:40:30;;;;;;;;;;;22.70;32.60;;;;;;4956152;28;20362;-68
2022/04/20 03:42:57;;;;;;;;;;;22.70;32.60;;;;;;4956310;29;20367;-68
2022/04/20 03:45:25;;;;;;;;;;;22.70;32.70;;;;;;4956351;28;19974;-69
2022/04/20 03:47:52;;;;;;;;;;;22.70;32.70;;;;;;4955948;29;20459;-69
2022/04/20 03:50:19;;;;;;;;;;;22.70;32.70;;;;;;4956358;28;19927;-68
2022/04/20 03:52:46;;;;;;;;;;;22.70;32.80;;;;;;4956207;29;19927;-68
2022/04/20 03:55:13;;;;;;;;;;;22.70;32.80;;;;;;4956008;28;20025;-68
2022/04/20 03:57:40;;;;;;;;;;;22.60;32.80;;;;;;4938767;29;19989;-68
2022/04/20 04:00:07;;;;;;;;;;;22.60;32.80;;;;;;4955880;28;19927;-68
2022/04/20 04:02:34;;;;;;;;;;;22.60;32.80;;;;;;4956135;29;19966;-68
2022/04/20 04:05:01;;;;;;;;;;;22.70;32.80;;;;;;4955680;28;19931;-68
2022/04/20 04:07:28;;;;;;;;;;;22.70;32.80;;;;;;4956197;29;19962;-68
2022/04/20 04:09:55;;;;;;;;;;;22.70;32.70;;;;;;4955945;28;19966;-68
2022/04/20 04:12:23;;;;;;;;;;;22.70;32.70;;;;;;4956112;29;19962;-68
2022/04/20 04:14:50;;;;;;;;;;;22.70;32.70;;;;;;4938769;29;19926;-68
2022/04/20 04:17:17;;;;;;;;;;;22.70;32.60;;;;;;4956153;29;19970;-68
2022/04/20 04:19:44;;;;;;;;;;;22.70;32.80;;;;;;4955781;28;20006;-69
2022/04/20 04:22:11;;;;;;;;;;;22.70;32.60;;;;;;4959427;28;19953;-69
2022/04/20 04:24:40;;;;;;;;;;;22.80;32.60;;;;;;4942009;29;19931;-69
2022/04/20 04:27:08;;;;;;;;;;;22.80;32.60;;;;;;4959328;29;19933;-68
2022/04/20 04:29:36;;;;;;;;;;;22.80;32.60;;;;;;4958808;28;20395;-68
2022/04/20 04:32:04;;;;;;;;;;;22.80;32.60;;;;;;4959360;28;19936;-69
2022/04/20 04:34:31;;;;;;;;;;;22.80;32.60;;;;;;4959003;28;19986;-68
2022/04/20 04:36:58;;;;;;;;;;;22.80;32.50;;;;;;4959017;28;19972;-70
2022/04/20 04:39:28;;;;;;;;;;;22.80;32.50;;;;;;4958967;28;20029;-69
2022/04/20 04:42:02;;;;;;;;;;;22.80;32.50;;;;;;4958803;29;19981;-69
2022/04/20 04:44:32;;;;;;;;;;;22.80;32.50;;;;;;4958848;28;19926;-68
2022/04/20 04:49:46;;;;;;;;;;;22.80;32.50;;;;;;4958704;28;19927;-68
2022/04/20 04:52:13;;;;;;;;;;;22.80;32.50;;;;;;4958991;29;19927;-69
2022/04/20 04:54:40;;;;;;;;;;;22.80;32.40;;;;;;4958663;28;20007;-69
2022/04/20 04:57:07;;;;;;;;;;;22.90;32.50;;;;;;4958697;28;19927;-69
2022/04/20 04:59:38;;;;;;;;;;;22.90;32.40;;;;;;4958395;28;19934;-68
2022/04/20 05:02:06;;;;;;;;;;;22.90;32.40;;;;;;4958844;28;19992;-69
2022/04/20 05:04:37;;;;;;;;;;;22.90;32.40;;;;;;4958374;28;19949;-68
2022/04/20 05:07:04;;;;;;;;;;;22.90;32.30;;;;;;4958680;28;19926;-68
2022/04/20 05:09:31;;;;;;;;;;;22.90;32.10;;;;;;4958453;28;19991;-68
2022/04/20 05:11:58;;;;;;;;;;;22.90;32.10;;;;;;4958567;29;20013;-68
2022/04/20 05:14:25;;;;;;;;;;;22.90;32.00;;;;;;4958384;28;20044;-68
2022/04/20 05:16:52;;;;;;;;;;;22.90;31.90;;;;;;4958708;28;19976;-68
2022/04/20 05:19:27;;;;;;;;;;;23.00;32.00;;;;;;4957736;28;20001;-69
2022/04/20 05:21:54;;;;;;;;;;;23.00;32.00;;;;;;4956023;28;19927;-68
2022/04/20 05:24:35;;;;;;;;;;;23.00;32.10;;;;;;4955041;29;19962;-66
2022/04/20 05:30:25;;;;;;;;;;;23.10;32.60;;;;;;4956983;29;20068;-65
2022/04/20 05:36:10;;;;;;;;;;;23.10;32.70;;;;;;4955080;29;19927;-60
2022/04/20 05:41:40;;;;;;;;;;;23.20;32.90;;;;;;4956340;29;19974;-60
2022/04/20 05:44:08;;;;;;;;;;;23.20;32.80;;;;;;4955711;28;19977;-63
2022/04/20 05:56:11;;;;;;;;;;;23.30;32.20;;;;;;5138315;23;19927;-65
2022/04/20 06:02:20;;;;;;;;;;;23.40;32.50;;;;;;5179673;23;19931;-66
2022/04/20 06:04:47;;;;;;;;;;;23.50;32.70;;;;;;4938634;28;19980;-60
2022/04/20 06:07:14;;;;;;;;;;;23.50;32.80;;;;;;4957947;28;20310;-65
2022/04/20 06:19:41;;;;;;;;;;;23.70;32.70;;;;;;5147949;23;20382;-60
2022/04/20 06:22:08;;;;;;;;;;;23.80;32.60;;;;;;4955627;28;19926;-61
2022/04/20 06:25:12;;;;;;;;;;;23.80;32.60;;;;;;4955626;28;19930;-65
2022/04/20 06:41:43;;;;;;;;;;;24.00;32.40;;;;;;5541432;23;20033;-68
2022/04/20 06:44:10;;;;;;;;;;;24.10;32.30;;;;;;4954526;29;19973;-63
2022/04/20 06:46:37;;;;;;;;;;;24.00;32.40;;;;;;4955984;29;19926;-68
2022/04/20 06:49:04;;;;;;;;;;;24.10;32.30;;;;;;4955093;29;19981;-62
2022/04/20 06:58:31;;;;;;;;;;;24.10;32.30;;;;;;4955029;29;19927;-68
2022/04/20 06:59:52;;;;;;;;;;;24.20;32.10;;;;;;4934525;29;20000;-68
2022/04/20 07:05:52;;;;;;;;;;;24.30;32.10;;;;;;4936041;29;19941;-65
2022/04/20 07:08:19;;;;;;;;;;;24.40;31.90;;;;;;4936210;28;19960;-66
2022/04/20 07:10:47;;;;;;;;;;;24.50;31.90;;;;;;4935549;28;20367;-61
2022/04/20 07:13:16;;;;;;;;;;;24.50;31.70;;;;;;4935749;28;19969;-62
2022/04/20 07:15:43;;;;;;;;;;;24.50;31.60;;;;;;4936065;28;19930;-62
2022/04/20 07:18:10;;;;;;;;;;;24.60;31.30;;;;;;4935194;29;19934;-66
2022/04/20 07:20:37;;;;;;;;;;;24.60;31.70;;;;;;4935105;29;20018;-64
2022/04/20 07:23:04;;;;;;;;;;;24.60;31.70;;;;;;4936668;29;20341;-63
2022/04/20 07:25:32;;;;;;;;;;;24.60;32.00;;;;;;4935013;29;20397;-66
2022/04/20 07:27:59;;;;;;;;;;;24.60;32.00;;;;;;4935303;29;19927;-64
2022/04/20 07:30:38;;;;;;;;;;;24.70;32.00;;;;;;4931359;29;19962;-67
2022/04/20 07:33:05;;;;;;;;;;;24.70;32.10;;;;;;4935423;28;19934;-66
2022/04/20 07:42:24;;;;;;;;;;;24.90;32.10;;;;;;4932434;28;20367;-67
2022/04/20 07:44:54;;;;;;;;;;;25.00;31.70;;;;;;4945535;28;19973;-67
2022/04/20 07:47:25;;;;;;;;;;;25.00;31.60;;;;;;5004734;28;19977;-61
2022/04/20 07:52:40;;;;;;;;;;;25.10;31.60;;;;;;4942975;29;19969;-67
2022/04/20 08:01:51;;;;;;;;;;;25.30;31.60;;;;;;4935560;28;20017;-67
2022/04/20 08:04:18;;;;;;;;;;;25.40;31.50;;;;;;4938965;29;20013;-61
2022/04/20 08:06:48;;;;;;;;;;;25.40;31.50;;;;;;4937264;29;20155;-67
2022/04/20 08:09:17;;;;;;;;;;;25.40;31.40;;;;;;4935286;29;19965;-67
2022/04/20 08:15:19;;;;;;;;;;;25.50;31.40;;;;;;4941791;29;19918;-66
2022/04/20 08:17:46;;;;;;;;;;;25.50;31.20;;;;;;4939885;28;19958;-64
2022/04/20 08:20:13;;;;;;;;;;;25.50;31.20;;;;;;4938106;29;20025;-62
2022/04/20 08:22:43;;;;;;;;;;;25.50;31.10;;;;;;4935553;29;21670;-61
2022/04/20 08:25:12;;;;;;;;;;;25.60;31.00;;;;;;4934060;28;20350;-61
2022/04/20 08:27:39;;;;;;;;;;;25.60;30.90;;;;;;4940435;28;19927;-62
2022/04/20 08:40:41;;;;;;;;;;;25.70;30.80;;;;;;4938230;29;19953;-65
2022/04/20 08:43:10;;;;;;;;;;;25.70;30.70;;;;;;4935513;28;19972;-65
2022/04/20 08:45:38;;;;;;;;;;;25.70;30.70;;;;;;4937715;28;19927;-65
2022/04/20 08:54:46;;;;;;;;;;;25.80;30.70;;;;;;4937196;29;20442;-66
2022/04/20 08:57:17;;;;;;;;;;;25.90;30.60;;;;;;4938185;29;19959;-61
2022/04/20 09:03:03;;;;;;;;;;;26.00;30.30;;;;;;4919461;29;20138;-65
2022/04/20 09:05:35;;;;;;;;;;;26.00;30.00;;;;;;4918854;29;20374;-62
2022/04/20 09:08:13;;;;;;;;;;;26.10;30.10;;;;;;4918168;29;19931;-65
2022/04/20 09:14:33;;;;;;;;;;;26.20;30.10;;;;;;4923553;28;19964;-59
2022/04/20 09:17:01;;;;;;;;;;;26.20;30.00;;;;;;4937292;29;20445;-65
2022/04/20 09:33:33;;;;;;;;;;;26.30;29.70;;;;;;4873049;29;19962;-66
2022/04/20 09:36:35;;;;;;;;;;;26.30;29.40;;;;;;4890350;28;20062;-61
2022/04/20 09:51:11;;;;;;;;;;;26.30;29.80;;;;;;4957893;29;19930;-65
2022/04/20 09:53:41;;;;;;;;;;;26.20;29.70;;;;;;4939391;28;19926;-67
2022/04/20 09:56:15;;;;;;;;;;;26.30;29.60;;;;;;4956241;29;19984;-67
2022/04/20 09:58:44;;;;;;;;;;;26.30;29.50;;;;;;4956601;28;20349;-62
2022/04/20 10:01:24;;;;;;;;;;;26.40;29.50;;;;;;4956339;29;19926;-60
2022/04/20 10:03:55;;;;;;;;;;;26.30;29.00;;;;;;4956857;28;20033;-66
2022/04/20 10:06:22;;;;;;;;;;;26.30;28.90;;;;;;4955924;29;20224;-62
2022/04/20 10:08:49;;;;;;;;;;;26.30;29.00;;;;;;4956873;29;19927;-61
2022/04/20 10:11:16;;;;;;;;;;;26.30;29.00;;;;;;4957951;29;20489;-61
2022/04/20 10:13:44;;;;;;;;;;;26.40;29.20;;;;;;4955991;29;19966;-60
2022/04/20 10:16:12;;;;;;;;;;;26.40;28.80;;;;;;4956872;28;20367;-61
2022/04/20 10:18:40;;;;;;;;;;;26.40;28.20;;;;;;4955626;28;19927;-65
2022/04/20 10:21:11;;;;;;;;;;;26.30;26.30;;;;;;4956103;28;20429;-65
2022/04/20 10:27:03;;;;;;;;;;;25.70;25.00;;;;;;4951014;28;19980;-65
2022/04/20 10:29:40;;;;;;;;;;;25.20;25.90;;;;;;4938771;29;19926;-61
2022/04/20 10:32:09;;;;;;;;;;;25.00;27.00;;;;;;4955202;29;19934;-62
2022/04/20 10:41:23;;;;;;;;;;;25.10;28.10;;;;;;5006196;28;20091;-62
2022/04/20 10:44:03;;;;;;;;;;;25.30;28.20;;;;;;5036695;28;19925;-62
2022/04/20 10:46:30;;;;;;;;;;;25.40;28.10;;;;;;5036523;28;20008;-66
2022/04/20 10:49:02;;;;;;;;;;;25.50;28.00;;;;;;5036724;28;19933;-65
2022/04/20 10:51:51;;;;;;;;;;;25.50;28.00;;;;;;5019676;28;19956;-62
2022/04/20 10:55:31;;;;;;;;;;;25.60;28.10;;;;;;4931185;28;19918;-60
2022/04/20 10:58:03;;;;;;;;;;;25.70;28.30;;;;;;4935733;28;19930;-64
2022/04/20 11:00:33;;;;;;;;;;;25.70;28.20;;;;;;4936605;28;19927;-60
2022/04/20 11:03:02;;;;;;;;;;;25.80;28.20;;;;;;4937381;29;20365;-64
2022/04/20 11:05:29;;;;;;;;;;;25.90;28.30;;;;;;4937480;29;19973;-64
2022/04/20 11:08:01;;;;;;;;;;;25.90;28.30;;;;;;4942773;28;19988;-62
2022/04/20 11:20:01;;;;;;;;;;;26.20;28.40;;;;;;4935638;29;19941;-62
2022/04/20 11:29:47;;;;;;;;;;;26.40;28.10;;;;;;4930766;29;19926;-63
2022/04/20 11:32:14;;;;;;;;;;;26.40;28.20;;;;;;4925414;28;19938;-60
2022/04/20 11:34:41;;;;;;;;;;;26.40;28.40;;;;;;4925793;28;19927;-59
2022/04/20 11:37:09;;;;;;;;;;;26.50;28.50;;;;;;4905200;28;20022;-59
2022/04/20 11:39:36;;;;;;;;;;;26.50;28.50;;;;;;4916071;28;19973;-60
2022/04/20 11:42:05;;;;;;;;;;;26.50;28.50;;;;;;4973070;28;20341;-60
2022/04/20 11:44:40;;;;;;;;;;;26.50;28.40;;;;;;4922649;28;19930;-63
2022/04/20 11:47:09;;;;;;;;;;;26.50;28.30;;;;;;4928040;28;19931;-61
2022/04/20 11:49:38;;;;;;;;;;;26.50;28.30;;;;;;4944287;28;20034;-61
2022/04/20 11:52:09;;;;;;;;;;;26.60;28.40;;;;;;4916070;28;20034;-61
2022/04/20 11:54:38;;;;;;;;;;;26.60;28.50;;;;;;4929817;28;19930;-61
2022/04/20 11:57:06;;;;;;;;;;;26.60;28.60;;;;;;4944545;28;20386;-61
2022/04/20 11:59:34;;;;;;;;;;;26.70;28.60;;;;;;4920589;28;19986;-62
2022/04/20 12:02:01;;;;;;;;;;;26.70;28.70;;;;;;4926193;28;19927;-62
2022/04/20 12:04:28;;;;;;;;;;;26.70;28.60;;;;;;4931942;28;20338;-61
2022/04/20 12:06:59;;;;;;;;;;;26.70;28.50;;;;;;4917676;28;20363;-62
2022/04/20 12:09:29;;;;;;;;;;;26.70;28.60;;;;;;4915532;28;20022;-60
2022/04/20 12:11:56;;;;;;;;;;;26.70;28.60;;;;;;4917495;28;19970;-60
2022/04/20 12:14:27;;;;;;;;;;;26.70;28.50;;;;;;4942430;28;19931;-60
2022/04/20 12:16:57;;;;;;;;;;;26.70;28.40;;;;;;4928095;28;20038;-59
2022/04/20 12:19:25;;;;;;;;;;;26.70;28.30;;;;;;4923408;28;19931;-60
2022/04/20 12:21:52;;;;;;;;;;;26.70;28.40;;;;;;4933341;28;20152;-61
2022/04/20 12:24:21;;;;;;;;;;;26.70;28.50;;;;;;4923880;28;20378;-61
2022/04/20 12:26:49;;;;;;;;;;;26.70;28.50;;;;;;4917639;28;20378;-59
2022/04/20 12:29:19;;;;;;;;;;;26.80;28.50;;;;;;4923772;28;19927;-58
2022/04/20 12:31:49;;;;;;;;;;;26.80;28.50;;;;;;4923543;28;19977;-63
2022/04/20 12:34:17;;;;;;;;;;;26.80;28.50;;;;;;4916382;29;19935;-63
2022/04/20 12:37:06;;;;;;;;;;;26.80;28.40;;;;;;4927743;28;20065;-61
2022/04/20 12:39:44;;;;;;;;;;;26.80;28.40;;;;;;4966769;28;20038;-60
2022/04/20 12:42:12;;;;;;;;;;;26.90;28.30;;;;;;4917786;28;20314;-61
2022/04/20 12:44:47;;;;;;;;;;;26.90;28.30;;;;;;4920539;29;19966;-60
2022/04/20 12:47:33;;;;;;;;;;;26.90;28.20;;;;;;4923656;28;19974;-61
2022/04/20 12:50:18;;;;;;;;;;;26.90;28.20;;;;;;4920631;28;19984;-60
2022/04/20 12:52:50;;;;;;;;;;;27.00;28.20;;;;;;4928542;28;19965;-59
2022/04/20 12:55:18;;;;;;;;;;;27.00;27.90;;;;;;4989834;28;19978;-61
2022/04/20 13:03:36;;;;;;;;;;;26.90;27.90;;;;;;4925613;28;19934;-58
2022/04/20 13:06:06;;;;;;;;;;;26.90;26.40;;;;;;4933810;28;19929;-59
2022/04/20 13:08:33;;;;;;;;;;;26.90;25.90;;;;;;4921457;28;19927;-59
2022/04/20 13:11:00;;;;;;;;;;;26.80;26.70;;;;;;4924806;28;20026;-59
2022/04/20 13:13:47;;;;;;;;;;;26.80;27.30;;;;;;4924585;28;19931;-63
2022/04/20 13:16:14;;;;;;;;;;;26.80;26.40;;;;;;4925089;28;20012;-61
2022/04/20 13:18:41;;;;;;;;;;;26.80;26.70;;;;;;4926028;28;20383;-62
2022/04/20 13:21:08;;;;;;;;;;;26.70;27.10;;;;;;4921997;28;19989;-64
2022/04/20 13:23:36;;;;;;;;;;;26.80;27.30;;;;;;4993346;28;19934;-60
2022/04/20 13:28:50;;;;;;;;;;;26.80;27.50;;;;;;4923851;28;19935;-59
2022/04/20 13:31:17;;;;;;;;;;;26.80;27.50;;;;;;4916185;28;20041;-59
2022/04/20 13:33:49;;;;;;;;;;;26.80;27.40;;;;;;4921513;29;19934;-60
2022/04/20 13:36:16;;;;;;;;;;;26.90;27.60;;;;;;4920869;28;19935;-60
2022/04/20 13:38:44;;;;;;;;;;;26.90;27.70;;;;;;4917159;28;19935;-59
2022/04/20 13:41:12;;;;;;;;;;;26.90;27.80;;;;;;4920102;28;20022;-59
2022/04/20 13:43:39;;;;;;;;;;;27.00;27.70;;;;;;4923605;28;20001;-60
2022/04/20 13:46:06;;;;;;;;;;;27.00;27.70;;;;;;4915455;28;19931;-61
2022/04/20 13:48:33;;;;;;;;;;;27.00;27.70;;;;;;4922568;28;20441;-61
2022/04/20 13:51:00;;;;;;;;;;;27.00;27.60;;;;;;4921435;28;19931;-61
2022/04/20 13:53:27;;;;;;;;;;;27.00;27.60;;;;;;4925958;28;19926;-61
2022/04/20 13:55:54;;;;;;;;;;;27.10;27.60;;;;;;4924721;28;19978;-64
2022/04/20 13:58:21;;;;;;;;;;;27.10;27.70;;;;;;4919213;29;19931;-61
2022/04/20 14:00:49;;;;;;;;;;;27.10;27.70;;;;;;4920468;28;19931;-59
2022/04/20 14:03:17;;;;;;;;;;;27.10;27.50;;;;;;4923010;28;19941;-61
2022/04/20 14:05:44;;;;;;;;;;;27.10;27.50;;;;;;4920908;28;19974;-62
2022/04/20 14:08:11;;;;;;;;;;;27.10;27.60;;;;;;4919213;28;19984;-63
2022/04/20 14:10:38;;;;;;;;;;;27.10;27.60;;;;;;4918028;28;20053;-60
2022/04/20 14:13:06;;;;;;;;;;;27.10;27.70;;;;;;4921689;29;20598;-60
2022/04/20 14:15:34;;;;;;;;;;;27.10;27.60;;;;;;4917436;28;19931;-62
2022/04/20 14:18:01;;;;;;;;;;;27.10;27.70;;;;;;4917454;28;19962;-60
2022/04/20 14:20:28;;;;;;;;;;;27.10;27.70;;;;;;4925404;28;19996;-60
2022/04/20 14:22:55;;;;;;;;;;;27.10;27.70;;;;;;4919885;29;20390;-60
2022/04/20 14:33:43;;;;;;;;;;;27.10;27.40;;;;;;4936050;28;19927;-64
2022/04/20 14:36:11;;;;;;;;;;;27.10;27.30;;;;;;4927063;28;19928;-62
2022/04/20 14:38:38;;;;;;;;;;;27.00;27.30;;;;;;4936945;28;20416;-66
2022/04/20 14:41:05;;;;;;;;;;;27.00;27.40;;;;;;4994284;28;19929;-65
2022/04/20 14:43:32;;;;;;;;;;;27.00;27.30;;;;;;4952471;28;19971;-61
2022/04/20 14:45:59;;;;;;;;;;;26.90;27.30;;;;;;4984583;28;19931;-61
2022/04/20 14:48:27;;;;;;;;;;;26.90;27.30;;;;;;4965196;28;19980;-64
2022/04/20 14:50:54;;;;;;;;;;;26.80;27.20;;;;;;4928040;28;19988;-65
2022/04/20 14:53:21;;;;;;;;;;;26.80;27.20;;;;;;4943760;28;20042;-64
2022/04/20 14:55:49;;;;;;;;;;;26.70;27.20;;;;;;4931113;28;20367;-65
2022/04/20 14:58:17;;;;;;;;;;;26.70;27.20;;;;;;4943008;28;19929;-64
2022/04/20 15:00:44;;;;;;;;;;;26.70;27.30;;;;;;4936407;28;19934;-65
2022/04/20 15:03:11;;;;;;;;;;;26.70;27.40;;;;;;4925179;28;20290;-65
2022/04/20 15:05:39;;;;;;;;;;;26.60;27.60;;;;;;4924290;29;20448;-65
2022/04/20 15:08:06;;;;;;;;;;;26.60;27.60;;;;;;4926144;28;20429;-64
2022/04/20 15:10:34;;;;;;;;;;;26.60;27.70;;;;;;4938357;28;19931;-64
2022/04/20 15:13:02;;;;;;;;;;;26.60;27.80;;;;;;4931672;28;19927;-64
2022/04/20 15:15:29;;;;;;;;;;;26.60;28.10;;;;;;4939433;28;19927;-64
2022/04/20 15:17:57;;;;;;;;;;;26.50;28.30;;;;;;4930686;28;19962;-64
2022/04/20 15:20:23;;;;;;;;;;;26.50;28.40;;;;;;4963480;28;20372;-66
2022/04/20 15:22:50;;;;;;;;;;;26.50;28.40;;;;;;4959270;28;19991;-62
2022/04/20 15:25:18;;;;;;;;;;;26.50;28.80;;;;;;4942241;28;19950;-62
2022/04/20 15:27:45;;;;;;;;;;;26.50;29.10;;;;;;4924639;28;20427;-65
2022/04/20 15:30:12;;;;;;;;;;;26.50;28.80;;;;;;4920046;28;19973;-65
2022/04/20 15:32:39;;;;;;;;;;;26.50;28.50;;;;;;4925892;29;20433;-61
2022/04/20 15:35:09;;;;;;;;;;;26.50;28.20;;;;;;4926915;28;20378;-61
2022/04/20 15:37:38;;;;;;;;;;;26.50;28.10;;;;;;4925271;28;19982;-64
2022/04/20 15:40:06;;;;;;;;;;;26.50;28.00;;;;;;4921722;28;20003;-62
2022/04/20 15:42:37;;;;;;;;;;;26.50;28.00;;;;;;4926683;28;19958;-63
2022/04/20 15:45:05;;;;;;;;;;;26.50;28.40;;;;;;4924938;29;19931;-62
2022/04/20 15:47:32;;;;;;;;;;;26.50;28.60;;;;;;4922786;29;19931;-64
2022/04/20 15:50:00;;;;;;;;;;;26.40;29.30;;;;;;4922308;28;19981;-66
2022/04/20 15:52:27;;;;;;;;;;;26.40;30.00;;;;;;4990159;28;20382;-63
2022/04/20 16:00:32;;;;;;;;;;;26.20;28.10;;;;;;4960443;28;19980;-62
2022/04/20 16:02:59;;;;;;;;;;;26.20;28.00;;;;;;4908334;29;19974;-62
2022/04/20 16:05:26;;;;;;;;;;;26.20;27.90;;;;;;4908329;28;20019;-62
2022/04/20 16:07:54;;;;;;;;;;;26.10;27.80;;;;;;4909170;29;20506;-61
2022/04/20 16:10:21;;;;;;;;;;;26.10;28.40;;;;;;4918404;28;19935;-62
2022/04/20 16:12:48;;;;;;;;;;;26.10;28.00;;;;;;4961252;28;20383;-63
2022/04/20 16:15:16;;;;;;;;;;;26.10;28.10;;;;;;4973118;28;20356;-63
2022/04/20 16:17:43;;;;;;;;;;;26.00;28.10;;;;;;4984584;28;19925;-63
2022/04/20 16:20:12;;;;;;;;;;;26.00;28.20;;;;;;4985728;28;20368;-61
2022/04/20 16:22:39;;;;;;;;;;;26.00;28.20;;;;;;4981979;28;19956;-62
2022/04/20 16:25:07;;;;;;;;;;;26.00;28.30;;;;;;4952716;28;19926;-61
2022/04/20 16:27:34;;;;;;;;;;;26.00;28.40;;;;;;4930476;29;19950;-61
2022/04/20 16:30:02;;;;;;;;;;;25.90;28.50;;;;;;4930386;29;20410;-62
2022/04/20 16:32:29;;;;;;;;;;;25.90;28.60;;;;;;4930566;29;20088;-62
2022/04/20 16:34:57;;;;;;;;;;;26.00;28.80;;;;;;4929984;29;19926;-62
2022/04/20 16:37:24;;;;;;;;;;;26.00;28.90;;;;;;4930148;29;19927;-61
2022/04/20 16:39:51;;;;;;;;;;;26.00;28.90;;;;;;4929943;29;19958;-62
2022/04/20 16:42:19;;;;;;;;;;;26.00;29.40;;;;;;4929298;29;20245;-62
2022/04/20 16:44:46;;;;;;;;;;;26.00;29.00;;;;;;4928262;29;19933;-62
2022/04/20 16:47:14;;;;;;;;;;;26.00;28.90;;;;;;4927597;29;20132;-62
2022/04/20 16:49:41;;;;;;;;;;;26.00;28.90;;;;;;4928271;29;20167;-62
2022/04/20 16:52:09;;;;;;;;;;;25.90;29.00;;;;;;4924273;29;19935;-63
2022/04/20 16:54:37;;;;;;;;;;;25.90;29.00;;;;;;4928038;29;19934;-62
2022/04/20 16:57:04;;;;;;;;;;;25.90;29.10;;;;;;4928048;29;19938;-62
2022/04/20 16:59:31;;;;;;;;;;;25.80;29.10;;;;;;4928073;28;19984;-62
2022/04/20 17:02:01;;;;;;;;;;;25.80;29.10;;;;;;4928489;28;19934;-62
2022/04/20 17:04:28;;;;;;;;;;;25.80;29.10;;;;;;4928200;29;19934;-62
2022/04/20 17:06:57;;;;;;;;;;;25.70;29.10;;;;;;4927545;29;20034;-62
2022/04/20 17:09:24;;;;;;;;;;;25.70;29.10;;;;;;4928482;29;20190;-62
2022/04/20 17:11:55;;;;;;;;;;;25.70;29.20;;;;;;4927033;29;20306;-62
2022/04/20 17:14:22;;;;;;;;;;;25.70;29.20;;;;;;4927895;29;20394;-62
2022/04/20 17:16:50;;;;;;;;;;;25.70;29.30;;;;;;4927743;29;20041;-62
2022/04/20 17:19:17;;;;;;;;;;;25.70;29.40;;;;;;4927972;29;20025;-62
2022/04/20 17:27:18;;;;;;;;;;;25.60;29.50;;;;;;4926983;29;19934;-61
2022/04/20 17:29:47;;;;;;;;;;;25.70;29.60;;;;;;4926977;29;20026;-62
2022/04/20 17:32:15;;;;;;;;;;;25.70;29.60;;;;;;4927884;28;20452;-62